Pudu — CBPJ — position and weather

sailwx.info

Track history (hours):
 
Tides and Currents Weather Stations Pressure Air Temp Water Temp Dewpoint Dewpoint Depression Visibility Wind Speed Wind Dir Waves Ship Positions

Pudu

Last reported at 2018-Apr-23 06:10 UTC. Time now 2018-Apr-23 07:27 UTC.
Position S 32°46' W 071°31'.

Length 183 m; draft 10.1 m.

Type: Tanker. MMSI: 725001925.

Date/timePositionNaut miles runAvg speedWind from/ knotsBaromVisibWave heightAir tempDewpointWater temp
2018-Apr-23 06:10S 32°46' W 071°31'0 0.3
2018-Apr-23 05:58S 32°46' W 071°31'0 0.2
2018-Apr-23 05:28S 32°46' W 071°31'0 0.0
2018-Apr-23 04:58S 32°46' W 071°31'0 0.0
2018-Apr-23 04:25S 32°46' W 071°31'0 0.0
2018-Apr-23 03:58S 32°46' W 071°31'0 0.1
2018-Apr-23 03:28S 32°46' W 071°31'1737.5
2018-Apr-23 03:01S 33°02' W 071°37'17386.8
2018-Apr-23 02:58S 32°46' W 071°31'0 0.0
2018-Apr-23 02:28S 32°46' W 071°31'0 0.0
2018-Apr-23 01:58S 32°46' W 071°31'0 0.1
2018-Apr-23 01:28S 32°46' W 071°31'0 0.1
2018-Apr-23 00:58S 32°46' W 071°31'0 0.0
2018-Apr-23 00:13S 32°46' W 071°31'0 0.0
2018-Apr-22 23:52S 32°46' W 071°31'0 0.0
2018-Apr-22 23:28S 32°46' W 071°31'0 0.0
2018-Apr-22 22:58S 32°46' W 071°31'0 0.0
2018-Apr-22 22:28S 32°46' W 071°31'0 0.0
2018-Apr-22 21:58S 32°46' W 071°31'0 0.0
2018-Apr-22 21:28S 32°46' W 071°31'0 0.0
2018-Apr-22 20:58S 32°46' W 071°31'0 0.0
2018-Apr-22 20:28S 32°46' W 071°31'0 0.1
2018-Apr-22 19:58S 32°46' W 071°31'0 0.6
2018-Apr-22 19:31S 32°46' W 071°31'2 2.9
2018-Apr-22 18:58S 32°44' W 071°31'0 0.2
2018-Apr-22 18:26S 32°44' W 071°31'0 0.0
2018-Apr-22 17:56S 32°44' W 071°31'0 0.0
2018-Apr-22 17:29S 32°44' W 071°31'0 0.0
2018-Apr-22 16:44S 32°44' W 071°31'0 0.0
2018-Apr-22 16:29S 32°44' W 071°31'0 0.0
2018-Apr-22 15:53S 32°44' W 071°31'0 0.0
2018-Apr-22 15:29S 32°44' W 071°31'0 0.0
2018-Apr-22 14:59S 32°44' W 071°31'0 0.0
2018-Apr-22 14:29S 32°44' W 071°31'0 0.0
2018-Apr-22 13:59S 32°44' W 071°31'0 0.0
2018-Apr-22 13:29S 32°44' W 071°31'0 0.0
2018-Apr-22 12:56S 32°44' W 071°31'0 0.0
2018-Apr-22 12:29S 32°44' W 071°31'0 0.0
2018-Apr-22 11:56S 32°44' W 071°31'0 0.0
2018-Apr-22 11:29S 32°44' W 071°31'0 0.0
2018-Apr-21 22:44S 32°44' W 071°31'0 0.0
2018-Apr-21 22:29S 32°44' W 071°31'0 0.0
2018-Apr-21 21:59S 32°44' W 071°31'0 0.0
2018-Apr-21 21:29S 32°44' W 071°31'0 0.0
2018-Apr-21 20:56S 32°44' W 071°31'0 0.0
2018-Apr-21 20:29S 32°44' W 071°31'0 0.0
2018-Apr-21 19:59S 32°44' W 071°31'0 0.4
2018-Apr-21 19:30S 32°44' W 071°31'1 1.7
2018-Apr-21 18:59S 32°45' W 071°32'3 6.9
2018-Apr-21 18:30S 32°46' W 071°36'5 9.2
2018-Apr-21 18:00S 32°49' W 071°39'510.3
2018-Apr-21 17:30S 32°54' W 071°42'510.3
2018-Apr-21 17:00S 32°59' W 071°44'510.4
2018-Apr-21 16:30S 33°03' W 071°47'  
2018-Apr-15 18:32S 33°02' W 071°49'0 9.1
2018-Apr-15 18:30S 33°02' W 071°49'5 9.2
2018-Apr-15 18:00S 32°58' W 071°46'5 9.2
2018-Apr-15 17:30S 32°54' W 071°43'4 9.0
2018-Apr-15 17:00S 32°50' W 071°41'5 9.1
2018-Apr-15 16:30S 32°46' W 071°38'4 8.2
2018-Apr-15 16:00S 32°44' W 071°34'4 6.8
2018-Apr-15 15:29S 32°46' W 071°30'0 0.0
2018-Apr-13 14:54S 32°46' W 071°30'1 0.2
2018-Apr-13 10:01S 32°45' W 071°30'0 0.0
2018-Apr-13 08:01S 32°45' W 071°30'0 0.0
2018-Apr-13 07:31S 32°45' W 071°30'0 0.0
2018-Apr-13 07:28S 32°45' W 071°30'0 0.0
2018-Apr-13 06:37S 32°45' W 071°30'0 0.0
2018-Apr-13 06:13S 32°45' W 071°30'  
Track history (hours):
 
Tides and Currents Weather Stations Pressure Air Temp Water Temp Dewpoint Dewpoint Depression Visibility Wind Speed Wind Dir Waves Ship Positions

Pudu

Last reported at 2018-Apr-23 06:10 UTC. Time now 2018-Apr-23 07:27 UTC.
Position S 32°46' W 071°31'.

Length 183 m; draft 10.1 m.

Type: Tanker. MMSI: 725001925.

Date/timePositionNaut miles runAvg speedWind from/ knotsBaromVisibWave heightAir tempDewpointWater temp
2018-Apr-23 06:10S 32°46' W 071°31'0 0.3
2018-Apr-23 05:58S 32°46' W 071°31'0 0.2
2018-Apr-23 05:28S 32°46' W 071°31'0 0.0
2018-Apr-23 04:58S 32°46' W 071°31'0 0.0
2018-Apr-23 04:25S 32°46' W 071°31'0 0.0
2018-Apr-23 03:58S 32°46' W 071°31'0 0.1
2018-Apr-23 03:28S 32°46' W 071°31'1737.5
2018-Apr-23 03:01S 33°02' W 071°37'17386.8
2018-Apr-23 02:58S 32°46' W 071°31'0 0.0
2018-Apr-23 02:28S 32°46' W 071°31'0 0.0
2018-Apr-23 01:58S 32°46' W 071°31'0 0.1
2018-Apr-23 01:28S 32°46' W 071°31'0 0.1
2018-Apr-23 00:58S 32°46' W 071°31'0 0.0
2018-Apr-23 00:13S 32°46' W 071°31'0 0.0
2018-Apr-22 23:52S 32°46' W 071°31'0 0.0
2018-Apr-22 23:28S 32°46' W 071°31'0 0.0
2018-Apr-22 22:58S 32°46' W 071°31'0 0.0
2018-Apr-22 22:28S 32°46' W 071°31'0 0.0
2018-Apr-22 21:58S 32°46' W 071°31'0 0.0
2018-Apr-22 21:28S 32°46' W 071°31'0 0.0
2018-Apr-22 20:58S 32°46' W 071°31'0 0.0
2018-Apr-22 20:28S 32°46' W 071°31'0 0.1
2018-Apr-22 19:58S 32°46' W 071°31'0 0.6
2018-Apr-22 19:31S 32°46' W 071°31'2 2.9
2018-Apr-22 18:58S 32°44' W 071°31'0 0.2
2018-Apr-22 18:26S 32°44' W 071°31'0 0.0
2018-Apr-22 17:56S 32°44' W 071°31'0 0.0
2018-Apr-22 17:29S 32°44' W 071°31'0 0.0
2018-Apr-22 16:44S 32°44' W 071°31'0 0.0
2018-Apr-22 16:29S 32°44' W 071°31'0 0.0
2018-Apr-22 15:53S 32°44' W 071°31'0 0.0
2018-Apr-22 15:29S 32°44' W 071°31'0 0.0
2018-Apr-22 14:59S 32°44' W 071°31'0 0.0
2018-Apr-22 14:29S 32°44' W 071°31'0 0.0
2018-Apr-22 13:59S 32°44' W 071°31'0 0.0
2018-Apr-22 13:29S 32°44' W 071°31'0 0.0
2018-Apr-22 12:56S 32°44' W 071°31'0 0.0
2018-Apr-22 12:29S 32°44' W 071°31'0 0.0
2018-Apr-22 11:56S 32°44' W 071°31'0 0.0
2018-Apr-22 11:29S 32°44' W 071°31'0 0.0
2018-Apr-21 22:44S 32°44' W 071°31'0 0.0
2018-Apr-21 22:29S 32°44' W 071°31'0 0.0
2018-Apr-21 21:59S 32°44' W 071°31'0 0.0
2018-Apr-21 21:29S 32°44' W 071°31'0 0.0
2018-Apr-21 20:56S 32°44' W 071°31'0 0.0
2018-Apr-21 20:29S 32°44' W 071°31'0 0.0
2018-Apr-21 19:59S 32°44' W 071°31'0 0.4
2018-Apr-21 19:30S 32°44' W 071°31'1 1.7
2018-Apr-21 18:59S 32°45' W 071°32'3 6.9
2018-Apr-21 18:30S 32°46' W 071°36'5 9.2
2018-Apr-21 18:00S 32°49' W 071°39'510.3
2018-Apr-21 17:30S 32°54' W 071°42'510.3
2018-Apr-21 17:00S 32°59' W 071°44'510.4
2018-Apr-21 16:30S 33°03' W 071°47'  
2018-Apr-15 18:32S 33°02' W 071°49'0 9.1
2018-Apr-15 18:30S 33°02' W 071°49'5 9.2
2018-Apr-15 18:00S 32°58' W 071°46'5 9.2
2018-Apr-15 17:30S 32°54' W 071°43'4 9.0
2018-Apr-15 17:00S 32°50' W 071°41'5 9.1
2018-Apr-15 16:30S 32°46' W 071°38'4 8.2
2018-Apr-15 16:00S 32°44' W 071°34'4 6.8
2018-Apr-15 15:29S 32°46' W 071°30'0 0.0
2018-Apr-13 14:54S 32°46' W 071°30'1 0.2
2018-Apr-13 10:01S 32°45' W 071°30'0 0.0
2018-Apr-13 08:01S 32°45' W 071°30'0 0.0
2018-Apr-13 07:31S 32°45' W 071°30'0 0.0
2018-Apr-13 07:28S 32°45' W 071°30'0 0.0
2018-Apr-13 06:37S 32°45' W 071°30'0 0.0
2018-Apr-13 06:13S 32°45' W 071°30'  

Dump ship's entire track history